sensor_id;sensor_type;location;lat;lon;timestamp;P1;durP1;ratioP1;P2;durP2;ratioP2
75718;SDS011;64340;48.534;-3.036;2023-03-19T00:02:16;2.53;;;0.80;;
75718;SDS011;64340;48.534;-3.036;2023-03-19T00:04:42;2.20;;;0.88;;
75718;SDS011;64340;48.534;-3.036;2023-03-19T00:07:08;3.25;;;0.70;;
75718;SDS011;64340;48.534;-3.036;2023-03-19T00:09:34;3.13;;;1.00;;
75718;SDS011;64340;48.534;-3.036;2023-03-19T00:12:00;2.47;;;0.95;;
75718;SDS011;64340;48.534;-3.036;2023-03-19T00:14:26;1.60;;;0.60;;
75718;SDS011;64340;48.534;-3.036;2023-03-19T00:16:52;2.20;;;0.57;;
75718;SDS011;64340;48.534;-3.036;2023-03-19T00:19:18;1.65;;;0.60;;
75718;SDS011;64340;48.534;-3.036;2023-03-19T00:21:44;2.47;;;0.68;;
75718;SDS011;64340;48.534;-3.036;2023-03-19T00:24:09;1.40;;;0.70;;
75718;SDS011;64340;48.534;-3.036;2023-03-19T00:26:36;2.17;;;0.70;;
75718;SDS011;64340;48.534;-3.036;2023-03-19T00:29:02;2.33;;;0.52;;
75718;SDS011;64340;48.534;-3.036;2023-03-19T00:31:28;2.88;;;0.73;;
75718;SDS011;64340;48.534;-3.036;2023-03-19T00:33:57;1.73;;;0.60;;
75718;SDS011;64340;48.534;-3.036;2023-03-19T00:36:24;3.10;;;0.60;;
75718;SDS011;64340;48.534;-3.036;2023-03-19T00:38:51;1.45;;;0.60;;
75718;SDS011;64340;48.534;-3.036;2023-03-19T00:41:17;1.45;;;0.50;;
75718;SDS011;64340;48.534;-3.036;2023-03-19T00:43:44;2.20;;;0.60;;
75718;SDS011;64340;48.534;-3.036;2023-03-19T00:46:10;1.45;;;0.60;;
75718;SDS011;64340;48.534;-3.036;2023-03-19T00:48:37;2.67;;;0.65;;
75718;SDS011;64340;48.534;-3.036;2023-03-19T00:51:06;1.80;;;0.52;;
75718;SDS011;64340;48.534;-3.036;2023-03-19T00:53:37;1.48;;;0.60;;
75718;SDS011;64340;48.534;-3.036;2023-03-19T00:56:12;1.30;;;0.50;;
75718;SDS011;64340;48.534;-3.036;2023-03-19T00:58:40;2.58;;;0.82;;
75718;SDS011;64340;48.534;-3.036;2023-03-19T01:01:06;1.58;;;0.50;;
75718;SDS011;64340;48.534;-3.036;2023-03-19T01:03:33;2.13;;;0.50;;
75718;SDS011;64340;48.534;-3.036;2023-03-19T01:05:59;1.98;;;0.50;;
75718;SDS011;64340;48.534;-3.036;2023-03-19T01:08:25;1.50;;;0.40;;
75718;SDS011;64340;48.534;-3.036;2023-03-19T01:10:51;1.67;;;0.55;;
75718;SDS011;64340;48.534;-3.036;2023-03-19T01:13:18;1.42;;;0.50;;
75718;SDS011;64340;48.534;-3.036;2023-03-19T01:15:44;2.25;;;0.57;;
75718;SDS011;64340;48.534;-3.036;2023-03-19T01:18:11;1.00;;;0.30;;
75718;SDS011;64340;48.534;-3.036;2023-03-19T01:20:37;0.80;;;0.30;;
75718;SDS011;64340;48.534;-3.036;2023-03-19T01:23:05;2.47;;;0.50;;
75718;SDS011;64340;48.534;-3.036;2023-03-19T01:25:31;1.98;;;0.60;;
75718;SDS011;64340;48.534;-3.036;2023-03-19T01:27:58;1.60;;;0.40;;
75718;SDS011;64340;48.534;-3.036;2023-03-19T01:30:23;1.75;;;0.40;;
75718;SDS011;64340;48.534;-3.036;2023-03-19T01:32:49;1.67;;;0.50;;
75718;SDS011;64340;48.534;-3.036;2023-03-19T01:35:15;2.38;;;0.52;;
75718;SDS011;64340;48.534;-3.036;2023-03-19T01:37:41;1.15;;;0.32;;
75718;SDS011;64340;48.534;-3.036;2023-03-19T01:40:09;1.25;;;0.40;;
75718;SDS011;64340;48.534;-3.036;2023-03-19T01:45:37;1.40;;;0.32;;
75718;SDS011;64340;48.534;-3.036;2023-03-19T01:48:04;1.27;;;0.47;;
75718;SDS011;64340;48.534;-3.036;2023-03-19T01:50:40;0.65;;;0.20;;
75718;SDS011;64340;48.534;-3.036;2023-03-19T01:53:09;1.73;;;0.50;;
75718;SDS011;64340;48.534;-3.036;2023-03-19T01:55:36;1.00;;;0.40;;
75718;SDS011;64340;48.534;-3.036;2023-03-19T01:58:02;0.85;;;0.30;;
75718;SDS011;64340;48.534;-3.036;2023-03-19T02:00:30;1.52;;;0.40;;
75718;SDS011;64340;48.534;-3.036;2023-03-19T02:02:59;1.00;;;0.40;;
75718;SDS011;64340;48.534;-3.036;2023-03-19T02:05:26;1.77;;;0.40;;
75718;SDS011;64340;48.534;-3.036;2023-03-19T02:07:55;1.60;;;0.40;;
75718;SDS011;64340;48.534;-3.036;2023-03-19T02:10:24;1.92;;;0.40;;
75718;SDS011;64340;48.534;-3.036;2023-03-19T02:12:51;0.95;;;0.40;;
75718;SDS011;64340;48.534;-3.036;2023-03-19T02:15:17;1.77;;;0.50;;
75718;SDS011;64340;48.534;-3.036;2023-03-19T02:17:43;2.10;;;0.30;;
75718;SDS011;64340;48.534;-3.036;2023-03-19T02:20:18;3.58;;;0.65;;
75718;SDS011;64340;48.534;-3.036;2023-03-19T02:22:55;1.70;;;0.40;;
75718;SDS011;64340;48.534;-3.036;2023-03-19T02:25:49;2.10;;;0.57;;
75718;SDS011;64340;48.534;-3.036;2023-03-19T02:28:20;1.42;;;0.30;;
75718;SDS011;64340;48.534;-3.036;2023-03-19T02:30:48;1.20;;;0.30;;
75718;SDS011;64340;48.534;-3.036;2023-03-19T02:33:15;1.92;;;0.40;;
75718;SDS011;64340;48.534;-3.036;2023-03-19T02:35:43;1.05;;;0.28;;
75718;SDS011;64340;48.534;-3.036;2023-03-19T02:38:13;1.90;;;0.50;;
75718;SDS011;64340;48.534;-3.036;2023-03-19T02:40:44;0.90;;;0.20;;
75718;SDS011;64340;48.534;-3.036;2023-03-19T02:43:19;1.40;;;0.40;;
75718;SDS011;64340;48.534;-3.036;2023-03-19T02:45:46;1.33;;;0.40;;
75718;SDS011;64340;48.534;-3.036;2023-03-19T02:48:11;2.83;;;0.50;;
75718;SDS011;64340;48.534;-3.036;2023-03-19T02:50:37;1.75;;;0.55;;
75718;SDS011;64340;48.534;-3.036;2023-03-19T02:53:03;3.05;;;0.40;;
75718;SDS011;64340;48.534;-3.036;2023-03-19T02:55:29;1.85;;;0.52;;
75718;SDS011;64340;48.534;-3.036;2023-03-19T02:57:55;1.52;;;0.40;;
75718;SDS011;64340;48.534;-3.036;2023-03-19T03:00:21;1.88;;;0.50;;
75718;SDS011;64340;48.534;-3.036;2023-03-19T03:02:47;1.70;;;0.35;;
75718;SDS011;64340;48.534;-3.036;2023-03-19T03:05:12;1.73;;;0.50;;
75718;SDS011;64340;48.534;-3.036;2023-03-19T03:07:38;1.52;;;0.32;;
75718;SDS011;64340;48.534;-3.036;2023-03-19T03:10:05;1.77;;;0.40;;
75718;SDS011;64340;48.534;-3.036;2023-03-19T03:12:32;1.92;;;0.45;;
75718;SDS011;64340;48.534;-3.036;2023-03-19T03:14:58;1.63;;;0.52;;
75718;SDS011;64340;48.534;-3.036;2023-03-19T03:17:23;1.60;;;0.40;;
75718;SDS011;64340;48.534;-3.036;2023-03-19T03:19:49;1.67;;;0.40;;
75718;SDS011;64340;48.534;-3.036;2023-03-19T03:22:15;1.42;;;0.40;;
75718;SDS011;64340;48.534;-3.036;2023-03-19T03:24:41;1.88;;;0.47;;
75718;SDS011;64340;48.534;-3.036;2023-03-19T03:27:07;2.30;;;0.60;;
75718;SDS011;64340;48.534;-3.036;2023-03-19T03:29:33;1.40;;;0.30;;
75718;SDS011;64340;48.534;-3.036;2023-03-19T03:31:59;0.57;;;0.22;;
75718;SDS011;64340;48.534;-3.036;2023-03-19T03:34:25;1.85;;;0.32;;
75718;SDS011;64340;48.534;-3.036;2023-03-19T03:36:50;1.52;;;0.30;;
75718;SDS011;64340;48.534;-3.036;2023-03-19T03:39:17;0.50;;;0.30;;
75718;SDS011;64340;48.534;-3.036;2023-03-19T03:41:43;1.05;;;0.35;;
75718;SDS011;64340;48.534;-3.036;2023-03-19T03:44:09;2.35;;;0.40;;
75718;SDS011;64340;48.534;-3.036;2023-03-19T03:46:35;1.67;;;0.40;;
75718;SDS011;64340;48.534;-3.036;2023-03-19T03:49:01;0.95;;;0.47;;
75718;SDS011;64340;48.534;-3.036;2023-03-19T03:51:27;2.08;;;0.30;;
75718;SDS011;64340;48.534;-3.036;2023-03-19T03:53:53;2.28;;;0.40;;
75718;SDS011;64340;48.534;-3.036;2023-03-19T03:56:18;1.05;;;0.35;;
75718;SDS011;64340;48.534;-3.036;2023-03-19T03:58:44;1.70;;;0.47;;
75718;SDS011;64340;48.534;-3.036;2023-03-19T04:01:15;1.23;;;0.30;;
75718;SDS011;64340;48.534;-3.036;2023-03-19T04:03:42;1.63;;;0.57;;
75718;SDS011;64340;48.534;-3.036;2023-03-19T04:06:11;1.73;;;0.40;;
75718;SDS011;64340;48.534;-3.036;2023-03-19T04:08:39;2.25;;;0.35;;
75718;SDS011;64340;48.534;-3.036;2023-03-19T04:11:06;1.52;;;0.30;;
75718;SDS011;64340;48.534;-3.036;2023-03-19T04:13:32;1.48;;;0.30;;
75718;SDS011;64340;48.534;-3.036;2023-03-19T04:16:01;1.58;;;0.38;;
75718;SDS011;64340;48.534;-3.036;2023-03-19T04:18:28;3.58;;;0.60;;
75718;SDS011;64340;48.534;-3.036;2023-03-19T04:20:54;1.48;;;0.40;;
75718;SDS011;64340;48.534;-3.036;2023-03-19T04:23:21;1.63;;;0.50;;
75718;SDS011;64340;48.534;-3.036;2023-03-19T04:25:47;1.73;;;0.38;;
75718;SDS011;64340;48.534;-3.036;2023-03-19T04:28:13;2.13;;;0.50;;
75718;SDS011;64340;48.534;-3.036;2023-03-19T04:30:38;3.05;;;0.70;;
75718;SDS011;64340;48.534;-3.036;2023-03-19T04:33:04;0.85;;;0.20;;
75718;SDS011;64340;48.534;-3.036;2023-03-19T04:35:30;1.77;;;0.50;;
75718;SDS011;64340;48.534;-3.036;2023-03-19T04:37:56;3.00;;;0.77;;
75718;SDS011;64340;48.534;-3.036;2023-03-19T04:40:22;2.22;;;0.50;;
75718;SDS011;64340;48.534;-3.036;2023-03-19T04:42:48;1.85;;;0.40;;
75718;SDS011;64340;48.534;-3.036;2023-03-19T04:45:14;2.90;;;0.57;;
75718;SDS011;64340;48.534;-3.036;2023-03-19T04:47:40;1.17;;;0.30;;
75718;SDS011;64340;48.534;-3.036;2023-03-19T04:50:06;2.08;;;0.40;;
75718;SDS011;64340;48.534;-3.036;2023-03-19T04:52:33;1.35;;;0.50;;
75718;SDS011;64340;48.534;-3.036;2023-03-19T04:55:01;3.08;;;0.60;;
75718;SDS011;64340;48.534;-3.036;2023-03-19T04:57:28;3.40;;;0.50;;
75718;SDS011;64340;48.534;-3.036;2023-03-19T04:59:54;2.28;;;0.50;;
75718;SDS011;64340;48.534;-3.036;2023-03-19T05:02:20;3.10;;;0.60;;
75718;SDS011;64340;48.534;-3.036;2023-03-19T05:04:46;1.52;;;0.45;;
75718;SDS011;64340;48.534;-3.036;2023-03-19T05:07:11;2.03;;;0.47;;
75718;SDS011;64340;48.534;-3.036;2023-03-19T05:09:37;2.00;;;0.30;;
75718;SDS011;64340;48.534;-3.036;2023-03-19T05:12:03;2.30;;;0.50;;
75718;SDS011;64340;48.534;-3.036;2023-03-19T05:14:29;2.22;;;0.50;;
75718;SDS011;64340;48.534;-3.036;2023-03-19T05:16:55;2.35;;;0.40;;
75718;SDS011;64340;48.534;-3.036;2023-03-19T05:19:20;1.42;;;0.35;;
75718;SDS011;64340;48.534;-3.036;2023-03-19T05:21:46;2.38;;;0.30;;
75718;SDS011;64340;48.534;-3.036;2023-03-19T05:24:12;2.10;;;0.45;;
75718;SDS011;64340;48.534;-3.036;2023-03-19T05:26:38;1.30;;;0.40;;
75718;SDS011;64340;48.534;-3.036;2023-03-19T05:29:03;0.85;;;0.30;;
75718;SDS011;64340;48.534;-3.036;2023-03-19T05:31:29;1.83;;;0.40;;
75718;SDS011;64340;48.534;-3.036;2023-03-19T05:33:55;3.38;;;0.70;;
75718;SDS011;64340;48.534;-3.036;2023-03-19T05:36:21;3.35;;;0.60;;
75718;SDS011;64340;48.534;-3.036;2023-03-19T05:38:48;1.58;;;0.40;;
75718;SDS011;64340;48.534;-3.036;2023-03-19T05:41:13;2.78;;;0.43;;
75718;SDS011;64340;48.534;-3.036;2023-03-19T05:43:39;1.98;;;0.40;;
75718;SDS011;64340;48.534;-3.036;2023-03-19T05:46:05;0.98;;;0.22;;
75718;SDS011;64340;48.534;-3.036;2023-03-19T05:48:31;1.30;;;0.32;;
75718;SDS011;64340;48.534;-3.036;2023-03-19T05:50:57;1.45;;;0.43;;
75718;SDS011;64340;48.534;-3.036;2023-03-19T05:53:23;2.03;;;0.60;;
75718;SDS011;64340;48.534;-3.036;2023-03-19T05:55:49;1.80;;;0.50;;
75718;SDS011;64340;48.534;-3.036;2023-03-19T05:58:15;2.38;;;0.40;;
75718;SDS011;64340;48.534;-3.036;2023-03-19T06:00:41;2.97;;;0.57;;
75718;SDS011;64340;48.534;-3.036;2023-03-19T06:03:06;2.60;;;0.60;;
75718;SDS011;64340;48.534;-3.036;2023-03-19T06:05:32;2.35;;;0.45;;
75718;SDS011;64340;48.534;-3.036;2023-03-19T06:07:58;1.55;;;0.38;;
75718;SDS011;64340;48.534;-3.036;2023-03-19T06:10:24;3.65;;;0.70;;
75718;SDS011;64340;48.534;-3.036;2023-03-19T06:12:51;3.20;;;0.88;;
75718;SDS011;64340;48.534;-3.036;2023-03-19T06:15:17;2.40;;;0.55;;
75718;SDS011;64340;48.534;-3.036;2023-03-19T06:17:42;3.08;;;0.55;;
75718;SDS011;64340;48.534;-3.036;2023-03-19T06:20:09;1.95;;;0.40;;
75718;SDS011;64340;48.534;-3.036;2023-03-19T06:22:36;1.52;;;0.30;;
75718;SDS011;64340;48.534;-3.036;2023-03-19T06:25:01;2.05;;;0.73;;
75718;SDS011;64340;48.534;-3.036;2023-03-19T06:27:27;2.42;;;0.43;;
75718;SDS011;64340;48.534;-3.036;2023-03-19T06:29:53;1.70;;;0.50;;
75718;SDS011;64340;48.534;-3.036;2023-03-19T06:32:19;1.70;;;0.35;;
75718;SDS011;64340;48.534;-3.036;2023-03-19T06:34:44;2.17;;;0.40;;
75718;SDS011;64340;48.534;-3.036;2023-03-19T06:37:10;2.38;;;0.57;;
75718;SDS011;64340;48.534;-3.036;2023-03-19T06:39:36;2.60;;;0.63;;
75718;SDS011;64340;48.534;-3.036;2023-03-19T06:42:02;3.53;;;0.45;;
75718;SDS011;64340;48.534;-3.036;2023-03-19T06:44:28;1.98;;;0.50;;
75718;SDS011;64340;48.534;-3.036;2023-03-19T06:46:54;1.42;;;0.40;;
75718;SDS011;64340;48.534;-3.036;2023-03-19T06:49:20;1.77;;;0.52;;
75718;SDS011;64340;48.534;-3.036;2023-03-19T06:51:46;3.60;;;0.60;;
75718;SDS011;64340;48.534;-3.036;2023-03-19T06:54:11;3.33;;;0.60;;
75718;SDS011;64340;48.534;-3.036;2023-03-19T06:56:37;2.25;;;0.57;;
75718;SDS011;64340;48.534;-3.036;2023-03-19T06:59:03;3.33;;;0.80;;
75718;SDS011;64340;48.534;-3.036;2023-03-19T07:01:29;1.27;;;0.40;;
75718;SDS011;64340;48.534;-3.036;2023-03-19T07:03:54;1.92;;;0.50;;
75718;SDS011;64340;48.534;-3.036;2023-03-19T07:06:21;2.22;;;0.45;;
75718;SDS011;64340;48.534;-3.036;2023-03-19T07:08:47;2.10;;;0.57;;
75718;SDS011;64340;48.534;-3.036;2023-03-19T07:11:13;2.75;;;0.70;;
75718;SDS011;64340;48.534;-3.036;2023-03-19T07:13:40;4.65;;;0.80;;
75718;SDS011;64340;48.534;-3.036;2023-03-19T07:16:06;1.50;;;0.40;;
75718;SDS011;64340;48.534;-3.036;2023-03-19T07:18:32;4.28;;;0.63;;
75718;SDS011;64340;48.534;-3.036;2023-03-19T07:20:58;2.05;;;0.63;;
75718;SDS011;64340;48.534;-3.036;2023-03-19T07:23:24;2.22;;;0.50;;
75718;SDS011;64340;48.534;-3.036;2023-03-19T07:25:50;2.65;;;0.60;;
75718;SDS011;64340;48.534;-3.036;2023-03-19T07:28:16;2.17;;;0.68;;
75718;SDS011;64340;48.534;-3.036;2023-03-19T07:30:42;2.22;;;0.60;;
75718;SDS011;64340;48.534;-3.036;2023-03-19T07:33:08;1.85;;;0.60;;
75718;SDS011;64340;48.534;-3.036;2023-03-19T07:35:34;3.15;;;0.70;;
75718;SDS011;64340;48.534;-3.036;2023-03-19T07:38:00;1.80;;;0.32;;
75718;SDS011;64340;48.534;-3.036;2023-03-19T07:40:26;2.85;;;0.60;;
75718;SDS011;64340;48.534;-3.036;2023-03-19T07:42:52;5.68;;;0.88;;
75718;SDS011;64340;48.534;-3.036;2023-03-19T07:45:19;3.78;;;0.70;;
75718;SDS011;64340;48.534;-3.036;2023-03-19T07:47:45;3.65;;;0.52;;
75718;SDS011;64340;48.534;-3.036;2023-03-19T07:50:18;3.38;;;0.70;;
75718;SDS011;64340;48.534;-3.036;2023-03-19T07:52:46;3.42;;;0.90;;
75718;SDS011;64340;48.534;-3.036;2023-03-19T07:57:41;3.22;;;0.63;;
75718;SDS011;64340;48.534;-3.036;2023-03-19T08:00:07;2.60;;;0.60;;
75718;SDS011;64340;48.534;-3.036;2023-03-19T08:02:34;3.25;;;0.70;;
75718;SDS011;64340;48.534;-3.036;2023-03-19T08:05:00;3.78;;;0.68;;
75718;SDS011;64340;48.534;-3.036;2023-03-19T08:07:29;4.78;;;0.63;;
75718;SDS011;64340;48.534;-3.036;2023-03-19T08:09:56;2.38;;;0.40;;
75718;SDS011;64340;48.534;-3.036;2023-03-19T08:12:22;2.47;;;0.52;;
75718;SDS011;64340;48.534;-3.036;2023-03-19T08:14:49;4.57;;;0.90;;
75718;SDS011;64340;48.534;-3.036;2023-03-19T08:17:15;2.15;;;0.60;;
75718;SDS011;64340;48.534;-3.036;2023-03-19T08:19:41;3.17;;;0.80;;
75718;SDS011;64340;48.534;-3.036;2023-03-19T08:22:11;2.50;;;0.60;;
75718;SDS011;64340;48.534;-3.036;2023-03-19T08:24:37;3.95;;;0.63;;
75718;SDS011;64340;48.534;-3.036;2023-03-19T08:27:07;2.05;;;0.70;;
75718;SDS011;64340;48.534;-3.036;2023-03-19T08:29:35;4.32;;;0.95;;
75718;SDS011;64340;48.534;-3.036;2023-03-19T08:32:01;3.60;;;0.90;;
75718;SDS011;64340;48.534;-3.036;2023-03-19T08:34:28;2.95;;;0.90;;
75718;SDS011;64340;48.534;-3.036;2023-03-19T08:36:54;3.92;;;1.15;;
75718;SDS011;64340;48.534;-3.036;2023-03-19T08:39:19;4.22;;;0.90;;
75718;SDS011;64340;48.534;-3.036;2023-03-19T08:41:45;4.43;;;1.02;;
75718;SDS011;64340;48.534;-3.036;2023-03-19T08:44:11;7.28;;;1.10;;
75718;SDS011;64340;48.534;-3.036;2023-03-19T08:46:39;5.68;;;0.90;;
75718;SDS011;64340;48.534;-3.036;2023-03-19T08:49:06;6.55;;;1.20;;
75718;SDS011;64340;48.534;-3.036;2023-03-19T08:51:32;3.65;;;0.80;;
75718;SDS011;64340;48.534;-3.036;2023-03-19T08:53:58;7.75;;;1.35;;
75718;SDS011;64340;48.534;-3.036;2023-03-19T08:56:24;4.95;;;1.15;;
75718;SDS011;64340;48.534;-3.036;2023-03-19T08:58:49;5.32;;;0.98;;
75718;SDS011;64340;48.534;-3.036;2023-03-19T09:01:16;2.50;;;0.70;;
75718;SDS011;64340;48.534;-3.036;2023-03-19T09:03:42;3.30;;;1.13;;
75718;SDS011;64340;48.534;-3.036;2023-03-19T09:06:10;4.68;;;1.10;;
75718;SDS011;64340;48.534;-3.036;2023-03-19T09:08:36;7.15;;;1.00;;
75718;SDS011;64340;48.534;-3.036;2023-03-19T09:11:03;5.00;;;1.30;;
75718;SDS011;64340;48.534;-3.036;2023-03-19T09:13:30;4.97;;;1.00;;
75718;SDS011;64340;48.534;-3.036;2023-03-19T09:15:59;3.92;;;0.98;;
75718;SDS011;64340;48.534;-3.036;2023-03-19T09:18:26;3.90;;;1.13;;
75718;SDS011;64340;48.534;-3.036;2023-03-19T09:20:53;4.85;;;0.90;;
75718;SDS011;64340;48.534;-3.036;2023-03-19T09:23:19;5.03;;;1.10;;
75718;SDS011;64340;48.534;-3.036;2023-03-19T09:25:49;5.30;;;1.30;;
75718;SDS011;64340;48.534;-3.036;2023-03-19T09:28:15;4.40;;;1.10;;
75718;SDS011;64340;48.534;-3.036;2023-03-19T09:30:44;5.68;;;1.27;;
75718;SDS011;64340;48.534;-3.036;2023-03-19T09:33:11;9.05;;;1.73;;
75718;SDS011;64340;48.534;-3.036;2023-03-19T09:35:38;10.60;;;2.47;;
75718;SDS011;64340;48.534;-3.036;2023-03-19T09:38:06;9.13;;;2.17;;
75718;SDS011;64340;48.534;-3.036;2023-03-19T09:46:20;8.55;;;2.28;;
75718;SDS011;64340;48.534;-3.036;2023-03-19T09:52:05;9.00;;;2.10;;
75718;SDS011;64340;48.534;-3.036;2023-03-19T09:54:26;8.68;;;2.20;;
75718;SDS011;64340;48.534;-3.036;2023-03-19T09:56:55;10.60;;;2.25;;
75718;SDS011;64340;48.534;-3.036;2023-03-19T09:59:24;12.70;;;1.98;;
75718;SDS011;64340;48.534;-3.036;2023-03-19T10:02:00;16.98;;;2.78;;
75718;SDS011;64340;48.534;-3.036;2023-03-19T10:12:52;7.88;;;1.42;;
75718;SDS011;64340;48.534;-3.036;2023-03-19T10:15:34;6.38;;;1.48;;
75718;SDS011;64340;48.534;-3.036;2023-03-19T10:26:02;5.70;;;1.38;;
75718;SDS011;64340;48.534;-3.036;2023-03-19T10:28:29;8.73;;;2.47;;
75718;SDS011;64340;48.534;-3.036;2023-03-19T10:33:51;8.50;;;1.58;;
75718;SDS011;64340;48.534;-3.036;2023-03-19T10:36:18;7.60;;;1.40;;
75718;SDS011;64340;48.534;-3.036;2023-03-19T10:38:48;5.18;;;1.45;;
75718;SDS011;64340;48.534;-3.036;2023-03-19T10:41:18;6.03;;;2.03;;
75718;SDS011;64340;48.534;-3.036;2023-03-19T10:43:55;7.97;;;1.88;;
75718;SDS011;64340;48.534;-3.036;2023-03-19T10:46:25;10.98;;;4.80;;
75718;SDS011;64340;48.534;-3.036;2023-03-19T10:48:51;7.13;;;4.80;;
75718;SDS011;64340;48.534;-3.036;2023-03-19T10:51:25;16.38;;;9.27;;
75718;SDS011;64340;48.534;-3.036;2023-03-19T10:53:58;25.42;;;15.25;;
75718;SDS011;64340;48.534;-3.036;2023-03-19T10:56:26;28.27;;;16.05;;
75718;SDS011;64340;48.534;-3.036;2023-03-19T11:01:32;56.72;;;30.85;;
75718;SDS011;64340;48.534;-3.036;2023-03-19T11:04:01;45.15;;;27.15;;
75718;SDS011;64340;48.534;-3.036;2023-03-19T11:06:37;53.80;;;32.08;;
75718;SDS011;64340;48.534;-3.036;2023-03-19T11:11:42;61.13;;;36.97;;
75718;SDS011;64340;48.534;-3.036;2023-03-19T11:14:19;59.60;;;36.38;;
75718;SDS011;64340;48.534;-3.036;2023-03-19T11:19:24;56.72;;;36.05;;
75718;SDS011;64340;48.534;-3.036;2023-03-19T11:22:13;51.13;;;35.50;;
75718;SDS011;64340;48.534;-3.036;2023-03-19T11:24:53;53.05;;;34.83;;
75718;SDS011;64340;48.534;-3.036;2023-03-19T11:27:32;28.75;;;18.30;;
75718;SDS011;64340;48.534;-3.036;2023-03-19T11:30:05;39.13;;;25.67;;
75718;SDS011;64340;48.534;-3.036;2023-03-19T11:35:37;36.47;;;23.80;;
75718;SDS011;64340;48.534;-3.036;2023-03-19T11:38:29;38.28;;;24.88;;
75718;SDS011;64340;48.534;-3.036;2023-03-19T11:44:28;39.85;;;25.73;;
75718;SDS011;64340;48.534;-3.036;2023-03-19T11:53:02;29.13;;;20.98;;
75718;SDS011;64340;48.534;-3.036;2023-03-19T11:55:40;29.67;;;20.55;;
75718;SDS011;64340;48.534;-3.036;2023-03-19T12:00:51;31.00;;;19.40;;
75718;SDS011;64340;48.534;-3.036;2023-03-19T12:08:35;29.00;;;19.00;;
75718;SDS011;64340;48.534;-3.036;2023-03-19T12:11:24;22.52;;;15.20;;
75718;SDS011;64340;48.534;-3.036;2023-03-19T12:33:18;19.25;;;12.65;;
75718;SDS011;64340;48.534;-3.036;2023-03-19T12:36:08;13.35;;;5.30;;
75718;SDS011;64340;48.534;-3.036;2023-03-19T12:38:45;10.93;;;4.50;;
75718;SDS011;64340;48.534;-3.036;2023-03-19T12:41:25;8.48;;;2.90;;
75718;SDS011;64340;48.534;-3.036;2023-03-19T12:46:57;4.90;;;2.30;;
75718;SDS011;64340;48.534;-3.036;2023-03-19T12:49:35;5.60;;;1.80;;
75718;SDS011;64340;48.534;-3.036;2023-03-19T12:57:43;12.05;;;4.95;;
75718;SDS011;64340;48.534;-3.036;2023-03-19T13:00:16;10.23;;;5.07;;
75718;SDS011;64340;48.534;-3.036;2023-03-19T13:02:46;9.27;;;4.72;;
75718;SDS011;64340;48.534;-3.036;2023-03-19T13:05:38;9.85;;;4.78;;
75718;SDS011;64340;48.534;-3.036;2023-03-19T13:10:44;7.22;;;2.38;;
75718;SDS011;64340;48.534;-3.036;2023-03-19T13:21:38;8.95;;;2.42;;
75718;SDS011;64340;48.534;-3.036;2023-03-19T13:26:50;7.22;;;2.63;;
75718;SDS011;64340;48.534;-3.036;2023-03-19T13:29:19;5.65;;;2.33;;
75718;SDS011;64340;48.534;-3.036;2023-03-19T13:31:46;5.50;;;2.83;;
75718;SDS011;64340;48.534;-3.036;2023-03-19T13:34:34;7.80;;;2.72;;
75718;SDS011;64340;48.534;-3.036;2023-03-19T13:37:15;7.22;;;2.95;;
75718;SDS011;64340;48.534;-3.036;2023-03-19T13:39:44;6.78;;;2.90;;
75718;SDS011;64340;48.534;-3.036;2023-03-19T13:45:00;7.70;;;2.75;;
75718;SDS011;64340;48.534;-3.036;2023-03-19T13:55:28;6.22;;;2.60;;
75718;SDS011;64340;48.534;-3.036;2023-03-19T14:01:03;4.82;;;2.25;;
75718;SDS011;64340;48.534;-3.036;2023-03-19T14:03:59;8.20;;;2.63;;
75718;SDS011;64340;48.534;-3.036;2023-03-19T14:09:04;6.53;;;2.58;;
75718;SDS011;64340;48.534;-3.036;2023-03-19T14:11:50;6.57;;;2.30;;
75718;SDS011;64340;48.534;-3.036;2023-03-19T14:14:16;5.72;;;2.30;;
75718;SDS011;64340;48.534;-3.036;2023-03-19T14:16:44;7.32;;;2.63;;
75718;SDS011;64340;48.534;-3.036;2023-03-19T14:19:11;8.95;;;2.40;;
75718;SDS011;64340;48.534;-3.036;2023-03-19T14:24:20;6.10;;;2.03;;
75718;SDS011;64340;48.534;-3.036;2023-03-19T14:26:53;6.65;;;2.28;;
75718;SDS011;64340;48.534;-3.036;2023-03-19T14:29:27;6.10;;;1.95;;
75718;SDS011;64340;48.534;-3.036;2023-03-19T14:31:59;5.45;;;1.92;;
75718;SDS011;64340;48.534;-3.036;2023-03-19T14:34:33;7.13;;;2.08;;
75718;SDS011;64340;48.534;-3.036;2023-03-19T14:40:07;6.15;;;2.08;;
75718;SDS011;64340;48.534;-3.036;2023-03-19T14:42:38;6.82;;;2.38;;
75718;SDS011;64340;48.534;-3.036;2023-03-19T14:50:52;5.13;;;1.70;;
75718;SDS011;64340;48.534;-3.036;2023-03-19T14:56:14;4.40;;;1.60;;
75718;SDS011;64340;48.534;-3.036;2023-03-19T14:58:48;5.95;;;1.92;;
75718;SDS011;64340;48.534;-3.036;2023-03-19T15:01:18;5.70;;;1.73;;
75718;SDS011;64340;48.534;-3.036;2023-03-19T15:03:50;5.50;;;2.28;;
75718;SDS011;64340;48.534;-3.036;2023-03-19T15:06:18;5.50;;;2.10;;
75718;SDS011;64340;48.534;-3.036;2023-03-19T15:08:44;6.30;;;1.77;;
75718;SDS011;64340;48.534;-3.036;2023-03-19T15:19:37;16.80;;;3.90;;
75718;SDS011;64340;48.534;-3.036;2023-03-19T15:22:08;9.13;;;1.95;;
75718;SDS011;64340;48.534;-3.036;2023-03-19T15:24:44;8.25;;;2.30;;
75718;SDS011;64340;48.534;-3.036;2023-03-19T15:27:24;7.93;;;2.53;;
75718;SDS011;64340;48.534;-3.036;2023-03-19T15:29:52;17.63;;;3.25;;
75718;SDS011;64340;48.534;-3.036;2023-03-19T15:35:01;5.85;;;1.88;;
75718;SDS011;64340;48.534;-3.036;2023-03-19T15:37:28;8.15;;;2.22;;
75718;SDS011;64340;48.534;-3.036;2023-03-19T15:39:57;9.07;;;2.47;;
75718;SDS011;64340;48.534;-3.036;2023-03-19T15:42:26;7.18;;;1.95;;
75718;SDS011;64340;48.534;-3.036;2023-03-19T15:44:55;9.30;;;1.90;;
75718;SDS011;64340;48.534;-3.036;2023-03-19T15:47:27;7.82;;;1.90;;
75718;SDS011;64340;48.534;-3.036;2023-03-19T15:50:07;6.65;;;1.70;;
75718;SDS011;64340;48.534;-3.036;2023-03-19T15:52:41;9.55;;;2.03;;
75718;SDS011;64340;48.534;-3.036;2023-03-19T15:55:12;7.53;;;1.90;;
75718;SDS011;64340;48.534;-3.036;2023-03-19T15:57:40;10.18;;;2.15;;
75718;SDS011;64340;48.534;-3.036;2023-03-19T16:00:08;6.20;;;1.92;;
75718;SDS011;64340;48.534;-3.036;2023-03-19T16:02:37;10.15;;;2.17;;
75718;SDS011;64340;48.534;-3.036;2023-03-19T16:05:05;7.53;;;1.95;;
75718;SDS011;64340;48.534;-3.036;2023-03-19T16:07:38;6.95;;;1.90;;
75718;SDS011;64340;48.534;-3.036;2023-03-19T16:15:55;4.32;;;1.65;;
75718;SDS011;64340;48.534;-3.036;2023-03-19T16:18:40;6.50;;;1.73;;
75718;SDS011;64340;48.534;-3.036;2023-03-19T16:21:23;14.90;;;2.38;;
75718;SDS011;64340;48.534;-3.036;2023-03-19T16:26:51;7.35;;;2.17;;
75718;SDS011;64340;48.534;-3.036;2023-03-19T16:31:49;5.93;;;1.65;;
75718;SDS011;64340;48.534;-3.036;2023-03-19T16:37:21;9.82;;;2.55;;
75718;SDS011;64340;48.534;-3.036;2023-03-19T16:42:38;7.10;;;1.38;;
75718;SDS011;64340;48.534;-3.036;2023-03-19T16:47:51;9.43;;;2.08;;
75718;SDS011;64340;48.534;-3.036;2023-03-19T16:50:24;5.82;;;1.92;;
75718;SDS011;64340;48.534;-3.036;2023-03-19T16:53:24;10.07;;;1.95;;
75718;SDS011;64340;48.534;-3.036;2023-03-19T16:55:52;7.68;;;2.13;;
75718;SDS011;64340;48.534;-3.036;2023-03-19T16:58:32;6.88;;;1.85;;
75718;SDS011;64340;48.534;-3.036;2023-03-19T17:03:43;9.93;;;1.95;;
75718;SDS011;64340;48.534;-3.036;2023-03-19T17:06:11;7.20;;;1.92;;
75718;SDS011;64340;48.534;-3.036;2023-03-19T17:08:40;7.63;;;1.63;;
75718;SDS011;64340;48.534;-3.036;2023-03-19T17:11:09;9.40;;;2.38;;
75718;SDS011;64340;48.534;-3.036;2023-03-19T17:13:56;9.95;;;1.52;;
75718;SDS011;64340;48.534;-3.036;2023-03-19T17:16:23;8.38;;;1.90;;
75718;SDS011;64340;48.534;-3.036;2023-03-19T17:18:50;7.22;;;1.55;;
75718;SDS011;64340;48.534;-3.036;2023-03-19T17:23:45;5.82;;;1.65;;
75718;SDS011;64340;48.534;-3.036;2023-03-19T17:26:12;7.90;;;1.83;;
75718;SDS011;64340;48.534;-3.036;2023-03-19T17:28:40;7.10;;;1.77;;
75718;SDS011;64340;48.534;-3.036;2023-03-19T17:31:11;6.50;;;1.92;;
75718;SDS011;64340;48.534;-3.036;2023-03-19T17:33:42;7.60;;;1.55;;